Time;durP1;ratioP1;P1;durP2;ratioP2;P2;SDS_P1;SDS_P2;PMS_P1;PMS_P2;Temp;Humidity;BMP_temperature;BMP_pressure;BME280_temperature;BME280_humidity;BME280_pressure;Samples;Min_cycle;Max_cycle;Signal;HPM_P1;HPM_P2
2022/05/24 04:42:19;;;;;;;6.20;3.40;;;;;;;12.55;77.41;99697.39;1698407;83;21074;-46
2022/05/24 04:44:49;;;;;;;5.67;3.55;;;;;;;12.64;75.88;99698.55;1773948;81;21109;-39
2022/05/24 04:47:15;;;;;;;8.78;3.52;;;;;;;12.73;75.62;99700.12;1759369;79;21041;-39
2022/05/24 04:49:47;;;;;;;7.22;3.25;;;;;;;12.79;75.10;99696.94;1773847;81;21105;-38
2022/05/24 04:52:14;;;;;;;5.85;3.92;;;;;;;12.88;73.10;99702.48;1757667;80;21594;-47
2022/05/24 04:54:42;;;;;;;5.40;3.25;;;;;;;12.96;72.91;99708.44;1746664;81;21531;-40
2022/05/24 04:57:09;;;;;;;12.60;4.08;;;;;;;13.04;72.10;99704.34;1763167;81;21097;-46
2022/05/24 04:59:35;;;;;;;5.42;3.20;;;;;;;13.12;71.53;99709.02;1766999;81;21377;-39
2022/05/24 05:02:04;;;;;;;6.42;2.92;;;;;;;13.21;71.18;99709.30;1743315;80;21107;-39
2022/05/24 05:04:31;;;;;;;6.58;3.52;;;;;;;13.27;70.25;99712.67;1758823;80;20977;-39
2022/05/24 05:06:57;;;;;;;4.65;3.47;;;;;;;13.31;69.41;99706.92;1765831;80;21691;-39
2022/05/24 05:09:24;;;;;;;5.47;3.60;;;;;;;13.34;70.18;99706.01;1771482;80;20980;-39
2022/05/24 05:11:51;;;;;;;6.75;3.62;;;;;;;13.43;69.51;99706.66;1770166;80;21052;-39
2022/05/24 05:14:19;;;;;;;7.08;4.05;;;;;;;13.53;69.63;99711.28;1769880;80;21619;-38
2022/05/24 05:16:46;;;;;;;8.50;3.47;;;;;;;13.65;68.12;99718.04;1769696;80;20985;-39
2022/05/24 05:19:13;;;;;;;20.37;4.10;;;;;;;13.74;67.80;99709.52;1771153;80;21052;-39
2022/05/24 05:21:40;;;;;;;18.80;3.33;;;;;;;13.85;67.61;99714.05;1769998;80;21496;-38
2022/05/24 05:24:08;;;;;;;7.45;3.37;;;;;;;13.98;66.39;99713.80;1771250;80;21044;-40
2022/05/24 05:26:34;;;;;;;6.33;3.15;;;;;;;14.04;64.58;99713.20;1767852;80;20978;-39
2022/05/24 05:29:01;;;;;;;8.58;3.65;;;;;;;14.08;64.70;99709.58;1770993;80;22329;-39
2022/05/24 05:31:27;;;;;;;6.15;3.25;;;;;;;14.19;64.76;99712.41;1764133;80;21029;-40
2022/05/24 05:33:57;;;;;;;6.35;3.40;;;;;;;14.31;63.25;99707.72;1771250;80;21639;-39
2022/05/24 05:36:24;;;;;;;7.25;3.70;;;;;;;14.41;61.70;99714.08;1773894;80;21014;-39
2022/05/24 05:38:51;;;;;;;9.88;3.22;;;;;;;14.49;61.28;99711.69;1780029;80;21578;-39
2022/05/24 05:41:24;;;;;;;6.45;3.12;;;;;;;14.59;61.75;99707.06;1769297;80;21075;-39
2022/05/24 05:43:50;;;;;;;;;;;;;;;14.71;61.42;99710.70;1778210;80;21041;-39
2022/05/24 05:46:17;;;;;;;10.15;2.62;;;;;;;14.85;62.10;99712.98;1766237;81;20096;-40
2022/05/24 05:48:44;;;;;;;5.25;2.60;;;;;;;14.97;60.96;99710.47;1762282;80;21091;-39
2022/05/24 05:51:12;;;;;;;11.28;2.75;;;;;;;15.10;58.89;99714.49;1771946;80;20991;-39
2022/05/24 05:53:39;;;;;;;4.85;2.45;;;;;;;15.26;58.19;99705.72;1749970;80;21053;-39
2022/05/24 05:56:09;;;;;;;12.33;3.00;;;;;;;15.40;56.91;99698.27;1761402;80;21532;-39
2022/05/24 05:58:36;;;;;;;4.70;2.47;;;;;;;15.55;56.78;99703.55;1768880;80;21083;-46
2022/05/24 06:01:02;;;;;;;7.95;2.60;;;;;;;15.68;54.78;99711.53;1771951;81;20954;-46
2022/05/24 06:03:30;;;;;;;4.22;2.45;;;;;;;15.78;52.57;99710.34;1765303;81;21638;-46
2022/05/24 06:05:59;;;;;;;3.00;2.12;;;;;;;15.86;51.78;99703.52;1765422;80;21488;-46
2022/05/24 06:08:27;;;;;;;6.08;2.67;;;;;;;15.94;50.68;99712.93;1763981;81;21067;-46
2022/05/24 06:10:56;;;;;;;4.45;2.40;;;;;;;16.02;50.23;99723.69;1761190;81;21297;-46
2022/05/24 06:13:25;;;;;;;3.67;2.20;;;;;;;16.09;50.06;99718.63;1766894;80;21005;-46
2022/05/24 06:15:51;;;;;;;10.20;3.52;;;;;;;16.20;50.41;99714.73;1763955;81;20996;-46
2022/05/24 06:18:18;;;;;;;8.30;2.52;;;;;;;16.33;49.99;99717.83;1772341;81;21631;-46
2022/05/24 06:20:45;;;;;;;4.12;2.45;;;;;;;16.46;48.08;99715.64;1767849;81;21065;-46
2022/05/24 06:23:11;;;;;;;7.67;2.10;;;;;;;16.53;45.20;99711.05;1768994;80;21076;-46
2022/05/24 06:25:40;;;;;;;4.22;2.00;;;;;;;16.56;44.56;99710.47;1762876;80;20993;-46
2022/05/24 06:28:06;;;;;;;5.35;2.33;;;;;;;16.62;43.80;99714.22;1763646;80;21022;-46
2022/05/24 06:30:33;;;;;;;3.83;2.20;;;;;;;16.70;43.54;99706.06;1764093;80;21016;-46
2022/05/24 06:32:59;;;;;;;3.47;1.92;;;;;;;16.78;42.98;99708.45;1761297;80;21583;-46
2022/05/24 06:35:26;;;;;;;5.42;2.90;;;;;;;16.89;43.51;99712.91;1768730;81;20978;-46
2022/05/24 06:37:54;;;;;;;4.50;2.10;;;;;;;17.01;42.51;99709.38;1762675;81;21021;-46
2022/05/24 06:40:21;;;;;;;5.80;2.17;;;;;;;17.12;41.56;99708.13;1771603;81;21021;-46
2022/05/24 06:42:48;;;;;;;12.37;2.12;;;;;;;17.22;41.50;99696.28;1769789;80;21060;-46
2022/05/24 06:45:15;;;;;;;8.10;2.10;;;;;;;17.31;39.38;99696.42;1764139;80;20962;-46
2022/05/24 06:47:41;;;;;;;4.47;1.98;;;;;;;17.38;39.99;99697.91;1760933;80;21484;-46
2022/05/24 06:50:09;;;;;;;5.42;2.50;;;;;;;17.45;34.95;99707.33;1765176;80;21036;-46
2022/05/24 06:52:36;;;;;;;10.15;2.50;;;;;;;17.50;34.98;99702.28;1751656;80;21587;-46
2022/05/24 06:55:05;;;;;;;3.10;2.15;;;;;;;17.60;35.86;99708.55;1760502;80;21596;-38
2022/05/24 06:57:31;;;;;;;4.62;2.20;;;;;;;17.70;34.62;99704.64;1760339;80;21101;-39
2022/05/24 07:02:43;;;;;;;3.70;1.82;;;;;;;17.69;33.90;99702.46;1765057;80;21056;-38
2022/05/24 07:05:17;;;;;;;3.60;2.00;;;;;;;17.70;32.32;99712.12;1763122;80;21029;-39
2022/05/24 07:07:44;;;;;;;3.85;2.35;;;;;;;17.70;32.05;99713.91;1757591;80;21041;-38
2022/05/24 07:10:15;;;;;;;3.70;1.90;;;;;;;17.69;31.84;99708.22;1760588;80;21017;-40
2022/05/24 07:12:45;;;;;;;6.25;2.08;;;;;;;17.68;32.69;99718.37;1760027;80;21548;-38
2022/05/24 07:15:12;;;;;;;5.78;2.05;;;;;;;17.66;33.45;99712.28;1747432;81;21057;-39
2022/05/24 07:17:38;;;;;;;7.15;2.00;;;;;;;17.73;34.71;99704.08;1758351;80;21123;-39
2022/05/24 07:20:07;;;;;;;2.65;2.00;;;;;;;17.90;34.35;99711.36;1728886;80;21039;-40
2022/05/24 07:22:35;;;;;;;5.40;3.15;;;;;;;17.96;31.16;99710.27;1758136;80;21009;-39
2022/05/24 07:25:01;;;;;;;10.88;2.95;;;;;;;17.91;32.49;99709.58;1755689;80;20957;-39
2022/05/24 07:27:28;;;;;;;6.35;2.42;;;;;;;17.87;32.60;99715.47;1760352;80;21028;-39
2022/05/24 07:29:55;;;;;;;5.60;2.17;;;;;;;17.92;34.01;99710.00;1746399;81;21662;-39
2022/05/24 07:32:22;;;;;;;4.67;2.98;;;;;;;17.94;34.13;99707.69;1763817;80;21053;-40
2022/05/24 07:34:48;;;;;;;3.98;2.08;;;;;;;17.90;33.51;99711.36;1764566;80;20973;-40
2022/05/24 07:37:16;;;;;;;2.37;1.98;;;;;;;17.97;34.18;99708.87;1760015;80;21065;-40
2022/05/24 07:39:43;;;;;;;7.67;2.40;;;;;;;18.17;34.24;99710.73;1755429;80;21024;-40
2022/05/24 07:47:40;;;;;;;8.08;2.30;;;;;;;18.74;33.76;99718.56;1759977;80;21071;-46
2022/05/24 07:50:08;;;;;;;2.85;1.95;;;;;;;18.91;34.02;99712.54;1759942;81;21469;-47
2022/05/24 07:52:35;;;;;;;3.62;2.22;;;;;;;19.06;32.27;99718.94;1761326;81;21545;-46
2022/05/24 07:55:03;;;;;;;3.27;1.87;;;;;;;19.20;31.32;99723.66;1758940;81;21503;-41
2022/05/24 07:57:30;;;;;;;5.45;1.95;;;;;;;19.32;32.40;99725.30;1763880;81;21568;-39
2022/05/24 07:59:56;;;;;;;5.95;2.15;;;;;;;19.33;31.74;99727.48;1764127;81;21045;-47
2022/05/24 08:02:23;;;;;;;3.47;2.15;;;;;;;19.27;32.06;99723.78;1763957;81;21084;-46
2022/05/24 08:04:54;;;;;;;2.83;2.02;;;;;;;19.16;32.49;99731.34;1763653;81;21073;-39
2022/05/24 08:07:22;;;;;;;4.72;2.12;;;;;;;19.00;31.91;99732.47;1762985;81;21029;-47
2022/05/24 08:09:49;;;;;;;3.87;2.27;;;;;;;18.79;31.80;99723.20;1762974;80;21041;-40
2022/05/24 08:12:15;;;;;;;4.87;2.10;;;;;;;18.67;32.05;99729.03;1763241;81;21100;-39
2022/05/24 08:14:42;;;;;;;8.80;2.45;;;;;;;18.57;32.21;99728.97;1763281;81;21033;-46
2022/05/24 08:17:09;;;;;;;4.58;2.52;;;;;;;18.43;31.62;99730.84;1763825;80;21534;-47
2022/05/24 08:19:36;;;;;;;8.85;3.00;;;;;;;18.26;32.04;99728.91;1761831;80;21041;-47
2022/05/24 08:22:04;;;;;;;7.20;2.33;;;;;;;18.15;32.74;99735.53;1767277;80;20946;-41
2022/05/24 08:24:32;;;;;;;5.55;2.22;;;;;;;18.03;32.67;99733.80;1769464;80;21468;-39
2022/05/24 08:27:00;;;;;;;2.50;1.82;;;;;;;17.98;32.41;99733.58;1765955;80;20966;-46
2022/05/24 08:29:26;;;;;;;8.20;2.50;;;;;;;17.92;33.03;99741.30;1770348;80;21052;-46
2022/05/24 08:31:53;;;;;;;2.92;2.30;;;;;;;17.86;32.07;99738.89;1761895;80;20962;-46
2022/05/24 08:34:20;;;;;;;6.75;2.08;;;;;;;17.83;31.84;99742.10;1763800;80;21044;-47
2022/05/24 08:36:47;;;;;;;3.72;1.82;;;;;;;17.90;32.40;99734.32;1763516;81;21012;-45
2022/05/24 08:39:14;;;;;;;7.70;1.98;;;;;;;18.12;33.00;99728.59;1762872;81;21819;-39
2022/05/24 08:41:58;;;;;;;6.70;2.33;;;;;;;18.43;32.74;99731.31;1726234;82;21046;-40
2022/05/24 08:50:18;;;;;;;3.60;2.30;;;;;;;19.16;30.87;99724.72;1752536;81;21056;-47
2022/05/24 08:52:57;;;;;;;4.90;1.72;;;;;;;19.21;29.71;99731.54;1753301;81;21096;-46
2022/05/24 08:55:25;;;;;;;3.62;2.50;;;;;;;19.22;30.14;99726.63;1743978;81;21045;-40
2022/05/24 08:57:57;;;;;;;5.87;2.05;;;;;;;19.29;31.33;99736.02;1682332;85;21029;-39
2022/05/24 09:00:30;;;;;;;2.45;2.00;;;;;;;19.39;29.61;99735.16;1754514;80;21045;-39
2022/05/24 09:02:57;;;;;;;5.05;2.10;;;;;;;19.47;28.40;99729.03;1766698;80;21047;-39
2022/05/24 09:05:41;;;;;;;6.05;2.30;;;;;;;19.54;27.87;99726.52;1768333;80;21001;-40
2022/05/24 09:08:29;;;;;;;3.35;2.10;;;;;;;19.59;28.50;99723.66;1768391;80;21065;-39
2022/05/24 09:11:11;;;;;;;3.80;1.95;;;;;;;19.56;28.77;99727.77;1764381;81;21076;-47
2022/05/24 09:14:03;;;;;;;5.62;2.20;;;;;;;19.46;29.27;99725.13;1763703;81;21058;-39
2022/05/24 09:16:56;;;;;;;4.62;1.95;;;;;;;19.39;29.20;99718.77;1767829;80;21848;-47
2022/05/24 09:19:30;;;;;;;7.95;2.65;;;;;;;19.50;29.85;99722.74;1763399;80;21560;-46
2022/05/24 09:21:56;;;;;;;5.15;2.05;;;;;;;19.64;29.23;99724.31;1767531;80;21029;-46
2022/05/24 09:24:42;;;;;;;6.08;1.80;;;;;;;19.63;29.07;99716.82;1757347;80;21426;-47
2022/05/24 09:27:20;;;;;;;6.33;1.90;;;;;;;19.63;28.37;99725.25;1758322;80;20986;-47
2022/05/24 09:30:05;;;;;;;1.85;1.57;;;;;;;19.63;28.62;99722.59;1756812;80;21037;-46
2022/05/24 09:32:43;;;;;;;2.05;1.57;;;;;;;19.72;28.89;99718.67;1763503;80;21012;-46
2022/05/24 09:35:23;;;;;;;2.17;1.75;;;;;;;19.83;27.98;99719.89;1756483;80;21417;-46
2022/05/24 09:38:11;;;;;;;16.17;3.20;;;;;;;19.87;27.85;99721.44;1753129;80;21083;-47
2022/05/24 09:40:52;;;;;;;1.75;1.60;;;;;;;19.84;27.65;99720.28;1751740;80;21081;-46
2022/05/24 09:43:29;;;;;;;2.20;1.82;;;;;;;19.69;28.43;99724.96;1768882;80;21120;-46
2022/05/24 09:46:05;;;;;;;3.45;1.67;;;;;;;19.47;28.34;99722.86;1731202;81;21034;-46
2022/05/24 09:48:35;;;;;;;3.50;2.12;;;;;;;19.34;27.36;99722.09;1729425;82;21037;-46
2022/05/24 09:51:03;;;;;;;5.53;1.90;;;;;;;19.36;28.02;99724.67;1666016;85;21481;-47
2022/05/24 09:53:32;;;;;;;4.67;1.90;;;;;;;19.42;27.71;99715.11;1691921;84;21165;-46
2022/05/24 09:56:05;;;;;;;3.47;1.77;;;;;;;19.55;28.62;99703.03;1690414;84;20998;-47
2022/05/24 09:58:36;;;;;;;3.30;1.70;;;;;;;19.68;28.80;99711.31;1726406;82;21097;-46
2022/05/24 10:01:13;;;;;;;3.05;2.02;;;;;;;19.79;28.66;99710.34;1725101;82;20999;-46
2022/05/24 10:03:48;;;;;;;3.02;1.80;;;;;;;19.94;28.82;99715.38;1729139;82;21084;-47
2022/05/24 10:06:29;;;;;;;3.33;2.20;;;;;;;20.03;27.67;99709.64;1710270;82;21038;-47
2022/05/24 10:09:13;;;;;;;4.22;2.52;;;;;;;20.03;28.00;99714.95;1734565;82;21032;-39
2022/05/24 10:11:49;;;;;;;5.37;1.85;;;;;;;19.96;27.99;99708.22;1729225;82;21036;-39
2022/05/24 10:14:48;;;;;;;7.62;2.00;;;;;;;19.97;28.46;99707.75;1733901;82;21047;-48
2022/05/24 10:17:26;;;;;;;3.05;1.62;;;;;;;20.03;27.64;99703.47;1662958;85;21124;-48
2022/05/24 10:20:16;;;;;;;2.98;1.92;;;;;;;20.17;28.01;99699.19;1691761;84;20951;-41
2022/05/24 10:23:41;;;;;;;9.13;2.10;;;;;;;20.33;27.44;99703.30;1733674;82;21045;-48
2022/05/24 10:26:41;;;;;;;2.40;1.65;;;;;;;20.38;28.43;99699.09;1732147;82;21025;-48
2022/05/24 10:29:39;;;;;;;4.37;2.30;;;;;;;20.31;28.09;99705.65;1733395;82;21002;-46
2022/05/24 10:38:17;;;;;;;2.67;1.90;;;;;;;20.28;28.99;99703.98;1734593;82;21093;-40
2022/05/24 10:40:43;;;;;;;4.35;2.47;;;;;;;20.78;28.25;99705.09;1733949;82;21589;-40
2022/05/24 10:43:15;;;;;;;5.40;2.20;;;;;;;20.60;28.47;99709.08;1734454;82;21073;-39
2022/05/24 10:45:50;;;;;;;3.87;2.05;;;;;;;20.51;28.66;99714.84;1762683;80;21066;-40
2022/05/24 10:48:39;;;;;;;8.75;2.10;;;;;;;20.35;27.59;99712.51;1769247;81;21061;-47
2022/05/24 10:51:34;;;;;;;4.37;2.00;;;;;;;20.12;27.47;99708.31;1769485;81;21073;-42
2022/05/24 10:54:18;;;;;;;3.27;2.10;;;;;;;19.92;27.67;99706.63;1769432;81;21088;-40
2022/05/24 10:56:55;;;;;;;3.92;2.05;;;;;;;19.95;27.93;99701.66;1769329;81;21061;-47
2022/05/24 10:59:44;;;;;;;2.60;2.02;;;;;;;20.12;28.89;99700.35;1769094;81;21046;-46
2022/05/24 11:02:19;;;;;;;5.10;2.20;;;;;;;20.31;28.78;99702.52;1769461;81;21052;-40
2022/05/24 11:04:58;;;;;;;5.83;2.30;;;;;;;20.46;26.75;99696.46;1769261;81;21507;-40
2022/05/24 11:07:24;;;;;;;5.62;2.20;;;;;;;20.59;29.14;99690.56;1769148;81;21121;-46
2022/05/24 11:10:16;;;;;;;4.65;2.00;;;;;;;20.76;27.65;99693.22;1719194;81;20993;-48
2022/05/24 11:12:49;;;;;;;6.78;2.08;;;;;;;20.85;27.46;99690.06;1697240;84;21090;-40
2022/05/24 11:15:33;;;;;;;9.98;2.45;;;;;;;20.83;28.02;99695.09;1694700;84;21567;-47
2022/05/24 11:17:58;;;;;;;2.72;2.08;;;;;;;20.78;28.79;99691.80;1675049;85;21146;-47
2022/05/24 11:20:28;;;;;;;6.12;2.40;;;;;;;20.72;29.21;99689.84;1645205;86;21966;-41
2022/05/24 11:23:06;;;;;;;3.00;1.77;;;;;;;20.63;27.80;99691.62;1642425;86;21098;-47
2022/05/24 11:25:55;;;;;;;3.00;2.12;;;;;;;20.42;28.71;99696.68;1664029;85;21066;-46
2022/05/24 11:28:25;;;;;;;6.65;2.58;;;;;;;20.15;27.84;99705.53;1660911;86;21145;-39
2022/05/24 11:30:53;;;;;;;2.92;2.10;;;;;;;19.95;27.66;99698.54;1669873;84;21121;-47
2022/05/24 11:33:36;;;;;;;3.55;2.35;;;;;;;20.00;27.89;99695.64;1667159;86;21071;-40
2022/05/24 11:36:43;;;;;;;2.58;1.70;;;;;;;20.11;27.29;99692.00;1648250;85;21106;-39
2022/05/24 11:39:18;;;;;;;3.02;1.82;;;;;;;20.24;26.89;99689.63;1660859;85;21099;-40
2022/05/24 11:41:44;;;;;;;4.53;1.77;;;;;;;20.24;27.53;99681.66;1666364;84;21065;-46
2022/05/24 11:44:30;;;;;;;9.78;2.72;;;;;;;20.23;27.42;99690.53;1643062;85;21049;-47
2022/05/24 11:46:57;;;;;;;3.72;2.27;;;;;;;20.17;27.83;99691.23;1633277;86;21084;-47
2022/05/24 11:49:29;;;;;;;5.15;1.92;;;;;;;20.18;27.80;99688.13;1662876;86;21017;-41
2022/05/24 11:51:58;;;;;;;3.30;2.02;;;;;;;20.22;27.87;99692.80;1662340;85;21484;-47
2022/05/24 11:54:30;;;;;;;2.83;2.08;;;;;;;20.27;27.90;99694.77;1660514;85;21502;-39
2022/05/24 11:57:09;;;;;;;2.87;2.10;;;;;;;20.25;28.51;99691.34;1662316;85;21059;-46
2022/05/24 11:59:47;;;;;;;6.80;1.80;;;;;;;20.20;27.18;99688.44;1656267;85;21543;-39
2022/05/24 12:02:33;;;;;;;3.72;2.08;;;;;;;20.22;26.43;99687.50;1635203;87;21108;-39
2022/05/24 12:08:01;;;;;;;5.00;2.15;;;;;;;20.38;28.11;99689.32;1635771;87;21067;-46
2022/05/24 12:10:42;;;;;;;3.25;1.70;;;;;;;20.49;26.52;99695.47;1603208;89;21070;-39
2022/05/24 12:13:20;;;;;;;2.83;2.00;;;;;;;20.40;27.47;99691.42;1635839;87;21099;-39
2022/05/24 12:15:48;;;;;;;3.12;1.80;;;;;;;20.28;26.90;99690.70;1635922;87;21016;-47
2022/05/24 12:18:18;;;;;;;3.87;1.87;;;;;;;20.21;27.23;99689.30;1635609;86;21096;-40
2022/05/24 12:20:56;;;;;;;4.67;1.80;;;;;;;20.25;27.47;99693.53;1653626;86;21854;-48
2022/05/24 12:23:37;;;;;;;5.67;1.85;;;;;;;20.35;27.35;99688.60;1695308;82;21077;-47
2022/05/24 12:26:12;;;;;;;2.80;1.72;;;;;;;20.47;26.61;99682.73;1739592;81;21577;-40
